Time;durP1;ratioP1;P1;durP2;ratioP2;P2;SDS_P1;SDS_P2;PMS_P1;PMS_P2;Temp;Humidity;BMP_temperature;BMP_pressure;BME280_temperature;BME280_humidity;BME280_pressure;Samples;Min_cycle;Max_cycle;Signal;HPM_P1;HPM_P2
2022/06/20 00:01:21;;;;;;;2.45;0.88;;;;;;;24.19;40.82;101086.63;4956056;29;20028;-70
2022/06/20 00:03:48;;;;;;;3.72;0.95;;;;;;;24.17;41.79;101069.56;4954821;29;20110;-69
2022/06/20 00:06:20;;;;;;;1.83;0.82;;;;;;;24.13;41.56;101058.19;4923047;29;20050;-69
2022/06/20 00:08:49;;;;;;;4.65;0.88;;;;;;;24.12;40.82;101050.22;4938932;29;20031;-70
2022/06/20 00:11:16;;;;;;;4.22;0.70;;;;;;;24.10;40.87;101047.66;4939205;29;20179;-70
2022/06/20 00:13:44;;;;;;;6.25;0.98;;;;;;;24.09;40.86;101047.84;4937949;29;20027;-70
2022/06/20 00:16:12;;;;;;;4.25;0.85;;;;;;;24.06;41.50;101034.59;4938892;29;20437;-69
2022/06/20 00:18:37;;;;;;;5.25;0.90;;;;;;;24.02;40.98;101038.78;4938762;29;20031;-69
2022/06/20 00:21:03;;;;;;;3.92;0.70;;;;;;;23.98;41.21;101045.75;4938544;29;20023;-69
2022/06/20 00:23:28;;;;;;;0.93;0.60;;;;;;;23.94;41.47;101060.91;4956989;28;20051;-71
2022/06/20 00:25:54;;;;;;;1.42;0.60;;;;;;;23.92;42.02;101080.28;4959875;29;20058;-69
2022/06/20 00:28:20;;;;;;;5.07;0.90;;;;;;;23.92;41.59;101120.50;4942580;29;20039;-69
2022/06/20 00:30:46;;;;;;;1.40;0.93;;;;;;;23.90;41.53;101152.72;4942569;29;20031;-70
2022/06/20 00:33:12;;;;;;;0.70;0.70;;;;;;;23.87;41.38;101196.91;4958373;29;20378;-70
2022/06/20 00:35:37;;;;;;;6.78;1.23;;;;;;;23.80;41.89;101253.50;4942450;29;20034;-70
2022/06/20 00:38:04;;;;;;;3.67;0.70;;;;;;;23.77;41.80;101304.84;4942352;29;20078;-70
2022/06/20 00:40:41;;;;;;;4.65;0.95;;;;;;;23.76;42.16;101319.56;4942028;29;20034;-69
2022/06/20 00:43:10;;;;;;;2.33;1.02;;;;;;;23.75;42.24;101317.91;4926595;29;20042;-70
2022/06/20 00:45:40;;;;;;;6.78;1.17;;;;;;;23.71;42.69;101310.28;4942241;29;20031;-70
2022/06/20 00:48:18;;;;;;;2.55;1.05;;;;;;;23.65;42.53;101268.16;4959243;29;20031;-69
2022/06/20 00:50:47;;;;;;;8.75;1.42;;;;;;;23.60;43.30;101243.31;4926339;29;19999;-70
2022/06/20 00:53:21;;;;;;;3.88;0.90;;;;;;;23.56;42.64;101225.59;4941842;29;20040;-70
2022/06/20 00:55:50;;;;;;;3.80;1.40;;;;;;;23.52;43.77;101229.81;4941978;29;20038;-70
2022/06/20 00:58:34;;;;;;;3.75;1.10;;;;;;;23.50;43.48;101193.63;4926060;29;20027;-69
2022/06/20 01:00:59;;;;;;;5.47;1.45;;;;;;;23.43;44.23;101198.22;4919655;29;20028;-69
2022/06/20 01:03:29;;;;;;;3.55;0.90;;;;;;;23.34;44.41;101174.78;4918952;29;20040;-70
2022/06/20 01:06:03;;;;;;;3.55;1.13;;;;;;;23.24;44.10;101171.59;4919189;29;20494;-70
2022/06/20 01:08:33;;;;;;;3.90;1.88;;;;;;;23.15;44.28;101175.53;4903475;29;20497;-70
2022/06/20 01:11:00;;;;;;;5.68;1.60;;;;;;;23.06;44.99;101174.88;4919543;29;20028;-71
2022/06/20 01:13:26;;;;;;;3.78;0.98;;;;;;;22.97;44.91;101156.13;4919262;29;20024;-71
2022/06/20 01:15:55;;;;;;;4.43;1.27;;;;;;;22.87;45.40;101141.97;4919285;29;20391;-71
2022/06/20 01:18:24;;;;;;;5.05;1.23;;;;;;;22.74;45.99;101117.31;4918817;29;20058;-71
2022/06/20 01:20:52;;;;;;;2.65;1.17;;;;;;;22.63;45.39;101105.03;4918833;29;20031;-72
2022/06/20 01:23:20;;;;;;;5.90;1.00;;;;;;;22.51;45.34;101114.81;4918891;29;20040;-71
2022/06/20 01:26:03;;;;;;;2.67;0.98;;;;;;;22.40;45.75;101109.91;4918853;29;20028;-71
2022/06/20 01:28:32;;;;;;;4.60;1.35;;;;;;;22.31;46.60;101105.63;4918717;29;20028;-71
2022/06/20 01:30:59;;;;;;;4.22;1.40;;;;;;;22.24;46.21;101091.09;4934509;29;20415;-72
2022/06/20 01:33:25;;;;;;;7.97;1.30;;;;;;;22.12;46.49;101071.69;4919936;29;20111;-71
2022/06/20 01:38:35;;;;;;;4.05;1.00;;;;;;;21.96;46.67;101066.53;4918755;29;20085;-71
2022/06/20 01:43:46;;;;;;;3.72;1.42;;;;;;;21.87;46.72;101044.00;4919570;29;20093;-72
2022/06/20 01:46:12;;;;;;;4.88;1.40;;;;;;;21.82;46.98;101015.63;4902733;29;20024;-71
2022/06/20 01:48:49;;;;;;;3.58;1.20;;;;;;;21.76;46.73;100998.16;4918420;29;20500;-72
2022/06/20 01:51:25;;;;;;;2.72;1.13;;;;;;;21.67;46.83;100991.16;4934403;29;20028;-72
2022/06/20 01:53:51;;;;;;;6.80;1.48;;;;;;;21.64;46.66;100974.34;4919363;29;20024;-71
2022/06/20 01:56:18;;;;;;;4.20;1.08;;;;;;;21.60;47.00;100953.97;4902429;29;20032;-71
2022/06/20 01:58:48;;;;;;;2.35;1.05;;;;;;;21.55;47.61;100945.56;4920582;29;20028;-71
2022/06/20 02:01:14;;;;;;;3.63;1.08;;;;;;;21.53;47.85;100950.34;4940435;29;20020;-71
2022/06/20 02:03:42;;;;;;;2.20;1.30;;;;;;;21.53;47.34;100955.78;4940341;29;20046;-70
2022/06/20 02:06:10;;;;;;;3.72;0.80;;;;;;;21.55;46.91;100959.19;4940037;29;20058;-71
2022/06/20 02:08:36;;;;;;;5.50;1.27;;;;;;;21.55;47.36;100953.72;4940175;29;20107;-71
2022/06/20 02:11:22;;;;;;;6.35;1.17;;;;;;;21.59;47.48;100960.47;4924636;29;20046;-71
2022/06/20 02:13:50;;;;;;;5.57;1.05;;;;;;;21.56;46.86;100960.84;4956110;29;20370;-70
2022/06/20 02:16:17;;;;;;;2.70;1.40;;;;;;;21.52;47.01;100960.41;4956098;29;20038;-70
2022/06/20 02:18:44;;;;;;;3.25;1.02;;;;;;;21.52;47.38;100965.03;4957153;29;20496;-70
2022/06/20 02:21:15;;;;;;;4.13;1.08;;;;;;;21.51;47.67;100953.28;4940512;29;20023;-70
2022/06/20 02:23:45;;;;;;;6.90;1.15;;;;;;;21.49;47.20;100955.34;4939869;29;20025;-70
2022/06/20 02:26:11;;;;;;;6.43;2.05;;;;;;;21.52;47.29;100943.22;4939944;29;20027;-70
2022/06/20 02:28:45;;;;;;;2.58;1.15;;;;;;;21.59;46.91;100944.09;4955631;29;20035;-70
2022/06/20 02:31:11;;;;;;;3.15;1.40;;;;;;;21.66;47.10;100947.72;4939845;29;20026;-70
2022/06/20 02:33:36;;;;;;;6.43;1.10;;;;;;;21.73;46.57;100975.88;4939860;29;20031;-71
2022/06/20 02:36:04;;;;;;;3.70;1.15;;;;;;;21.78;46.20;100978.84;4956837;29;20023;-71
2022/06/20 02:38:29;;;;;;;4.90;1.83;;;;;;;21.83;46.58;100968.22;4939486;29;20035;-70
2022/06/20 02:40:56;;;;;;;3.95;1.02;;;;;;;21.89;46.11;100978.34;4939516;29;20031;-70
2022/06/20 02:43:26;;;;;;;5.93;1.00;;;;;;;21.93;46.09;100985.09;4939359;29;20023;-70
2022/06/20 02:45:53;;;;;;;2.50;1.10;;;;;;;21.96;46.36;100974.63;4939459;28;20123;-70
2022/06/20 02:48:19;;;;;;;2.60;1.05;;;;;;;22.00;46.12;100970.44;4938469;29;20038;-71
2022/06/20 02:50:49;;;;;;;10.75;2.20;;;;;;;22.02;46.73;100978.44;4939440;29;20032;-69
2022/06/20 02:53:20;;;;;;;3.40;1.55;;;;;;;22.04;46.59;100966.28;4955284;29;20485;-70
2022/06/20 02:55:46;;;;;;;3.42;1.40;;;;;;;22.07;46.18;100965.03;4939288;29;20039;-71
2022/06/20 02:58:22;;;;;;;3.65;1.50;;;;;;;22.05;46.32;100951.59;4923497;29;20031;-71
2022/06/20 03:01:05;;;;;;;4.03;1.25;;;;;;;22.05;46.52;100934.41;4955002;29;20405;-71
2022/06/20 03:03:34;;;;;;;6.55;1.70;;;;;;;22.04;46.47;100933.53;4956018;29;20374;-70
2022/06/20 03:06:01;;;;;;;3.42;1.20;;;;;;;22.06;46.29;100941.50;4939297;29;20023;-71
2022/06/20 03:08:26;;;;;;;6.82;1.40;;;;;;;22.05;46.27;100935.22;4939080;29;20054;-70
2022/06/20 03:10:53;;;;;;;3.00;1.55;;;;;;;22.07;46.80;100943.22;4938954;29;20023;-70
2022/06/20 03:13:19;;;;;;;16.55;1.92;;;;;;;22.04;46.10;100935.44;4939188;29;20031;-70
2022/06/20 03:15:46;;;;;;;6.47;1.58;;;;;;;22.02;46.78;100924.72;4955135;29;20026;-70
2022/06/20 03:18:16;;;;;;;3.42;1.40;;;;;;;22.01;46.27;100944.00;4938925;29;20031;-70
2022/06/20 03:20:42;;;;;;;6.15;2.67;;;;;;;22.01;46.64;100944.00;4939079;29;20086;-71
2022/06/20 03:23:24;;;;;;;4.90;1.35;;;;;;;22.00;46.68;100950.50;4939014;29;20023;-71
2022/06/20 03:25:50;;;;;;;3.70;1.42;;;;;;;21.97;46.65;100959.13;4939245;29;20601;-71
2022/06/20 03:28:21;;;;;;;3.85;1.95;;;;;;;21.96;46.47;100962.88;4938775;29;20029;-70
2022/06/20 03:30:48;;;;;;;3.00;1.75;;;;;;;21.95;46.62;100966.63;4954738;29;20075;-71
2022/06/20 03:33:16;;;;;;;5.40;1.55;;;;;;;21.93;46.98;100979.63;4939061;29;20110;-70
2022/06/20 03:35:44;;;;;;;2.40;1.23;;;;;;;21.93;46.89;101013.22;4923028;29;20046;-70
2022/06/20 03:38:12;;;;;;;3.38;1.52;;;;;;;21.95;46.94;101037.56;4938925;29;20026;-70
2022/06/20 03:40:39;;;;;;;8.02;1.95;;;;;;;21.99;46.36;101066.16;4956116;29;20023;-70
2022/06/20 03:43:05;;;;;;;4.50;1.27;;;;;;;22.02;46.99;101087.59;4955035;29;20102;-70
2022/06/20 03:45:33;;;;;;;2.72;1.02;;;;;;;22.07;46.49;101101.47;4938575;29;20046;-71
2022/06/20 03:48:10;;;;;;;7.65;1.60;;;;;;;22.09;46.93;101110.28;4938533;29;20465;-71
2022/06/20 03:50:39;;;;;;;7.53;1.30;;;;;;;22.11;45.86;101124.59;4938290;29;20019;-71
2022/06/20 03:53:18;;;;;;;4.80;1.13;;;;;;;22.16;46.53;101138.50;4938562;29;20462;-70
2022/06/20 03:55:49;;;;;;;5.40;1.80;;;;;;;22.18;45.78;101162.84;4922510;29;20031;-71
2022/06/20 03:58:24;;;;;;;7.43;1.63;;;;;;;22.19;46.26;101173.59;4954501;29;20512;-69
2022/06/20 04:00:58;;;;;;;6.10;1.17;;;;;;;22.23;45.87;101183.06;4938657;29;20043;-70
2022/06/20 04:03:38;;;;;;;4.85;1.63;;;;;;;22.26;45.43;101188.13;4955823;29;20023;-70
2022/06/20 04:06:06;;;;;;;4.22;1.73;;;;;;;22.26;46.02;101188.13;4955751;29;20407;-70
2022/06/20 04:11:32;;;;;;;4.00;1.13;;;;;;;22.27;46.18;101181.63;4940718;29;20037;-70
2022/06/20 04:14:46;;;;;;;5.30;1.70;;;;;;;22.25;46.13;101175.50;4922951;29;20089;-70
2022/06/20 04:20:05;;;;;;;8.15;1.50;;;;;;;22.19;45.42;101162.69;4954391;29;20516;-70
2022/06/20 04:22:33;;;;;;;5.53;1.15;;;;;;;22.20;45.42;101178.00;4938125;29;20045;-71
2022/06/20 04:25:14;;;;;;;1.48;1.23;;;;;;;22.21;45.50;101179.69;4954291;29;20035;-70
2022/06/20 04:27:48;;;;;;;6.53;1.38;;;;;;;22.18;46.35;101162.84;4955340;29;20034;-70
2022/06/20 04:30:27;;;;;;;6.63;1.25;;;;;;;22.24;45.51;101157.47;4938200;29;20549;-70
2022/06/20 04:33:11;;;;;;;5.93;1.10;;;;;;;22.25;45.98;101159.13;4938352;29;20031;-70
2022/06/20 04:35:40;;;;;;;4.47;1.20;;;;;;;22.26;46.45;101157.25;4937993;29;20034;-70
2022/06/20 04:38:15;;;;;;;5.10;1.77;;;;;;;22.25;46.42;101147.41;4938159;29;20027;-70
2022/06/20 04:40:48;;;;;;;5.53;1.63;;;;;;;22.25;46.28;101144.66;4922291;29;20030;-70
2022/06/20 04:43:22;;;;;;;7.07;1.25;;;;;;;22.26;46.47;101138.16;4938398;29;20028;-69
2022/06/20 04:45:53;;;;;;;11.70;1.48;;;;;;;22.27;46.28;101140.69;4938257;29;20086;-69
2022/06/20 04:48:20;;;;;;;6.20;1.45;;;;;;;22.29;46.61;101137.75;4955456;29;20023;-70
2022/06/20 04:50:48;;;;;;;8.13;1.10;;;;;;;22.30;46.10;101134.00;4954914;29;20450;-70
2022/06/20 04:53:18;;;;;;;5.10;1.33;;;;;;;22.31;45.75;101146.59;4937654;29;20039;-71
2022/06/20 04:55:49;;;;;;;4.97;1.48;;;;;;;22.31;46.47;101141.97;4937926;29;20035;-69
2022/06/20 04:58:19;;;;;;;8.15;1.38;;;;;;;22.33;46.25;101144.53;4938178;29;20027;-70
2022/06/20 05:00:46;;;;;;;3.55;0.98;;;;;;;22.36;46.05;101144.94;4953906;29;20043;-70
2022/06/20 05:03:16;;;;;;;7.82;1.35;;;;;;;22.38;45.89;101153.81;4938117;29;20046;-70
2022/06/20 05:05:44;;;;;;;4.97;1.25;;;;;;;22.40;45.91;101148.97;4938060;29;20105;-70
2022/06/20 05:08:14;;;;;;;10.50;1.80;;;;;;;22.41;45.91;101142.50;4937969;29;20035;-70
2022/06/20 05:10:50;;;;;;;15.32;1.70;;;;;;;22.42;45.71;101144.16;4939155;29;20031;-70
2022/06/20 05:13:38;;;;;;;6.30;1.42;;;;;;;22.42;45.81;101137.84;4957405;29;20023;-70
2022/06/20 05:16:06;;;;;;;2.25;1.17;;;;;;;22.37;46.42;101135.72;4957275;29;20110;-70
2022/06/20 05:18:41;;;;;;;6.60;1.27;;;;;;;22.37;45.75;101140.34;4941486;29;20397;-69
2022/06/20 05:21:10;;;;;;;3.53;1.08;;;;;;;22.37;46.18;101146.66;4941274;29;20023;-70
2022/06/20 05:23:45;;;;;;;6.18;2.05;;;;;;;22.35;45.87;101137.81;4941136;29;20030;-70
2022/06/20 05:26:15;;;;;;;7.97;1.95;;;;;;;22.30;46.43;101134.84;4940975;29;20019;-70
2022/06/20 05:28:41;;;;;;;7.30;1.95;;;;;;;22.27;46.29;101134.38;4941568;29;20032;-69
2022/06/20 05:31:07;;;;;;;5.25;1.58;;;;;;;22.26;46.15;101133.53;4941324;29;20049;-70
2022/06/20 05:33:51;;;;;;;4.88;1.30;;;;;;;22.26;45.63;101129.97;4925164;29;20047;-70
2022/06/20 05:36:29;;;;;;;3.03;1.42;;;;;;;22.25;46.00;101139.22;4958404;29;20031;-70
2022/06/20 05:39:00;;;;;;;5.97;1.95;;;;;;;22.26;45.63;101143.59;4958485;29;20062;-70
2022/06/20 05:41:26;;;;;;;5.68;1.35;;;;;;;22.28;45.69;101149.75;4941106;29;20170;-70
2022/06/20 05:43:52;;;;;;;4.35;1.42;;;;;;;22.31;45.41;101152.03;4957909;29;20031;-70
2022/06/20 05:46:36;;;;;;;11.55;2.22;;;;;;;22.33;46.37;101148.09;4957962;29;20045;-70
2022/06/20 05:49:09;;;;;;;8.05;1.60;;;;;;;22.36;45.79;101144.94;4940815;29;20027;-69
2022/06/20 05:51:37;;;;;;;7.53;1.42;;;;;;;22.38;45.70;101145.63;4940713;29;20023;-70
2022/06/20 05:54:08;;;;;;;8.30;1.77;;;;;;;22.40;45.85;101146.25;4924840;28;20038;-70
2022/06/20 05:56:39;;;;;;;10.27;2.08;;;;;;;22.44;45.98;101163.09;4940938;29;20031;-70
2022/06/20 05:59:05;;;;;;;8.50;2.47;;;;;;;22.45;46.05;101176.53;4940477;29;20043;-70
2022/06/20 06:01:39;;;;;;;9.43;1.90;;;;;;;22.49;45.35;101171.53;4940399;29;20038;-70
2022/06/20 06:04:11;;;;;;;2.92;1.63;;;;;;;22.51;45.82;101175.75;4956457;29;20027;-70
2022/06/20 06:06:42;;;;;;;4.43;1.30;;;;;;;22.53;45.38;101181.84;4940459;29;20038;-70
2022/06/20 06:09:42;;;;;;;4.78;1.42;;;;;;;22.57;45.40;101185.88;4957077;29;20031;-70
2022/06/20 06:12:13;;;;;;;10.13;1.73;;;;;;;22.59;45.80;101185.66;4940359;29;20027;-71
2022/06/20 06:15:14;;;;;;;5.78;1.55;;;;;;;22.64;45.50;101180.47;4956026;29;20023;-69
2022/06/20 06:17:44;;;;;;;7.22;1.75;;;;;;;22.65;45.71;101170.41;4925076;29;20112;-71
2022/06/20 06:20:25;;;;;;;8.23;1.60;;;;;;;22.67;45.88;101179.25;4940299;29;20079;-70
2022/06/20 06:22:54;;;;;;;4.75;1.98;;;;;;;22.68;44.91;101176.31;4924172;29;20023;-70
2022/06/20 06:25:31;;;;;;;20.45;3.70;;;;;;;22.69;45.77;101168.97;4924566;29;20042;-69
2022/06/20 06:28:02;;;;;;;5.03;1.85;;;;;;;22.75;45.46;101173.63;4957660;29;20027;-69
2022/06/20 06:30:31;;;;;;;4.95;1.17;;;;;;;22.81;45.17;101189.25;4940303;29;20404;-70
2022/06/20 06:33:01;;;;;;;6.03;2.03;;;;;;;22.86;44.88;101184.84;4924216;29;20035;-70
2022/06/20 06:35:29;;;;;;;4.10;1.25;;;;;;;22.92;44.82;101191.41;4955969;29;20033;-69
2022/06/20 06:38:02;;;;;;;3.20;2.13;;;;;;;22.96;45.20;101206.34;4956879;29;20477;-70
2022/06/20 06:40:41;;;;;;;9.48;1.48;;;;;;;22.99;45.25;101212.25;4939398;29;20023;-69
2022/06/20 06:43:37;;;;;;;6.22;0.82;;;;;;;23.00;45.32;101229.50;4956437;29;20042;-70
2022/06/20 06:46:03;;;;;;;5.85;1.10;;;;;;;23.00;44.86;101241.25;4958274;28;20039;-70
2022/06/20 06:48:39;;;;;;;7.78;1.05;;;;;;;22.98;44.16;101242.50;4963565;28;20027;-70
2022/06/20 06:51:09;;;;;;;6.53;2.08;;;;;;;22.97;44.14;101238.09;4966406;28;20062;-70
2022/06/20 06:53:42;;;;;;;2.63;1.05;;;;;;;22.99;43.98;101238.75;4933417;28;20019;-70
2022/06/20 06:56:22;;;;;;;2.63;1.00;;;;;;;22.98;43.75;101220.63;4948570;28;20023;-69
2022/06/20 06:59:00;;;;;;;7.25;0.90;;;;;;;22.96;44.35;101234.53;4946077;29;20039;-70
2022/06/20 07:01:48;;;;;;;8.15;2.28;;;;;;;22.96;44.09;101230.94;4948723;28;20030;-70
2022/06/20 07:04:20;;;;;;;6.57;0.98;;;;;;;22.95;43.98;101231.97;4948266;29;20051;-70
2022/06/20 07:07:00;;;;;;;5.65;1.00;;;;;;;22.99;43.61;101238.75;4946861;28;20019;-70
2022/06/20 07:09:37;;;;;;;11.32;1.08;;;;;;;23.02;44.06;101231.00;4945156;28;20085;-70
2022/06/20 07:12:03;;;;;;;4.65;1.08;;;;;;;23.06;44.58;101234.19;4945965;28;20022;-70
2022/06/20 07:14:31;;;;;;;12.43;1.00;;;;;;;23.09;44.20;101250.16;4966131;28;20110;-70
2022/06/20 07:17:07;;;;;;;5.60;1.13;;;;;;;23.12;44.38;101244.28;4946778;28;20023;-70
2022/06/20 07:19:44;;;;;;;1.95;0.75;;;;;;;23.13;44.43;101245.97;4948179;28;20046;-70
2022/06/20 07:22:12;;;;;;;5.55;0.88;;;;;;;23.19;43.78;101250.66;4961499;28;20031;-70
2022/06/20 07:24:37;;;;;;;3.80;1.08;;;;;;;23.25;44.30;101247.13;4930221;28;20101;-70
2022/06/20 07:27:11;;;;;;;7.95;1.33;;;;;;;23.32;44.24;101249.88;4948376;28;20027;-69
2022/06/20 07:29:44;;;;;;;5.15;1.52;;;;;;;23.40;43.11;101258.78;4945339;29;20386;-70
2022/06/20 07:32:13;;;;;;;3.72;1.25;;;;;;;23.50;43.67;101259.28;4939187;29;20506;-70
2022/06/20 07:34:59;;;;;;;8.15;2.53;;;;;;;23.59;43.32;101260.75;4938606;29;20557;-70
2022/06/20 07:37:29;;;;;;;9.13;2.22;;;;;;;23.75;43.55;101271.38;4923153;29;20031;-69
2022/06/20 07:39:59;;;;;;;9.57;1.77;;;;;;;23.98;42.50;101267.47;4939001;29;20441;-70
2022/06/20 07:42:38;;;;;;;7.13;1.45;;;;;;;24.21;42.41;101276.16;4938953;29;20393;-69
2022/06/20 07:45:08;;;;;;;8.60;2.25;;;;;;;24.78;42.19;101276.47;4955982;29;20128;-70
2022/06/20 07:47:38;;;;;;;9.88;2.20;;;;;;;24.99;42.50;101296.50;4922764;29;20043;-70
2022/06/20 07:50:09;;;;;;;4.30;1.52;;;;;;;25.31;42.01;101298.38;4922971;29;20540;-70
2022/06/20 07:52:39;;;;;;;7.93;1.52;;;;;;;25.72;41.42;101296.16;4939027;29;20023;-70
2022/06/20 07:55:10;;;;;;;5.28;1.70;;;;;;;26.05;41.63;101290.53;4938721;29;20121;-70
2022/06/20 07:57:41;;;;;;;6.28;1.70;;;;;;;26.15;41.32;101284.59;4922630;29;20126;-70
2022/06/20 08:00:10;;;;;;;4.25;1.05;;;;;;;26.22;40.84;101285.38;4938448;29;20065;-70
2022/06/20 08:02:55;;;;;;;3.13;1.92;;;;;;;26.61;40.82;101299.72;4955630;29;20035;-69
2022/06/20 08:05:28;;;;;;;3.78;1.75;;;;;;;26.83;40.62;101288.38;4938718;29;20035;-70
2022/06/20 08:08:04;;;;;;;4.57;1.63;;;;;;;26.80;40.96;101302.59;4922634;29;20027;-70
2022/06/20 08:10:34;;;;;;;4.75;1.80;;;;;;;26.77;40.72;101305.75;4955600;29;20034;-69
2022/06/20 08:13:56;;;;;;;4.30;1.25;;;;;;;26.87;40.01;101306.94;4938548;29;20069;-70
2022/06/20 08:16:27;;;;;;;6.60;1.92;;;;;;;27.03;39.97;101298.13;4896576;29;20112;-69
2022/06/20 08:18:53;;;;;;;7.53;2.00;;;;;;;26.94;39.95;101296.72;4881041;29;20040;-69
2022/06/20 08:21:22;;;;;;;6.15;1.63;;;;;;;26.83;40.19;101294.72;4896544;29;20411;-69
2022/06/20 08:24:02;;;;;;;3.10;1.35;;;;;;;26.73;40.33;101291.59;4896122;29;20032;-70
2022/06/20 08:26:31;;;;;;;6.07;1.63;;;;;;;26.69;40.20;101293.09;4865202;29;20024;-69
2022/06/20 08:28:58;;;;;;;4.32;1.10;;;;;;;26.78;39.45;101294.53;4896378;29;20446;-71
2022/06/20 08:31:30;;;;;;;3.42;1.40;;;;;;;27.08;38.98;101298.28;4896414;29;20108;-69
2022/06/20 08:34:16;;;;;;;6.35;1.30;;;;;;;27.09;38.88;101299.13;4896398;29;20047;-70
2022/06/20 08:36:49;;;;;;;3.90;1.17;;;;;;;27.12;39.04;101310.53;4896348;29;20048;-70
2022/06/20 08:39:20;;;;;;;4.18;1.00;;;;;;;27.14;38.77;101316.66;4896353;29;20025;-70
2022/06/20 08:42:33;;;;;;;5.43;1.70;;;;;;;27.68;38.52;101323.31;4896117;29;20105;-70
2022/06/20 08:45:24;;;;;;;3.50;1.20;;;;;;;28.46;37.34;101323.38;4885776;29;20041;-70
2022/06/20 08:48:13;;;;;;;4.38;0.93;;;;;;;28.51;36.82;101326.28;4934316;29;20038;-71
2022/06/20 08:50:46;;;;;;;3.92;1.05;;;;;;;28.40;37.98;101329.81;4959400;29;20553;-70
2022/06/20 08:53:37;;;;;;;5.95;1.23;;;;;;;28.42;37.84;101339.53;4942106;29;20105;-70
2022/06/20 08:56:23;;;;;;;6.47;1.05;;;;;;;28.34;37.96;101344.56;4959277;29;20493;-70
2022/06/20 08:59:10;;;;;;;5.05;1.05;;;;;;;28.41;37.46;101342.53;4941331;29;20134;-70
2022/06/20 09:01:53;;;;;;;5.45;1.35;;;;;;;28.54;36.59;101347.88;4939765;29;20040;-70
2022/06/20 09:04:31;;;;;;;3.60;1.08;;;;;;;28.77;36.78;101345.22;4939826;29;20032;-69
2022/06/20 09:07:08;;;;;;;2.45;1.45;;;;;;;29.45;36.38;101346.38;4938450;29;20023;-69
2022/06/20 09:10:15;;;;;;;4.40;1.17;;;;;;;29.92;35.55;101352.75;4938448;29;20122;-70
2022/06/20 09:12:52;;;;;;;3.55;1.55;;;;;;;30.43;34.99;101343.56;4939481;29;20028;-69
2022/06/20 09:15:20;;;;;;;3.78;1.25;;;;;;;30.58;34.97;101343.88;4938188;29;20485;-69
2022/06/20 09:17:55;;;;;;;5.15;1.52;;;;;;;30.18;35.03;101350.50;4939850;29;20058;-70
2022/06/20 09:20:38;;;;;;;3.47;1.17;;;;;;;29.93;34.87;101353.56;4938606;29;20019;-69
2022/06/20 09:23:31;;;;;;;5.05;0.70;;;;;;;29.71;34.90;101349.72;4922247;29;20414;-70
2022/06/20 09:26:12;;;;;;;5.45;0.65;;;;;;;29.47;35.42;101354.44;4939433;29;20024;-70
2022/06/20 09:29:03;;;;;;;10.35;1.20;;;;;;;29.29;35.05;101352.63;4938177;29;20019;-68
2022/06/20 09:31:44;;;;;;;2.78;0.93;;;;;;;29.26;35.77;101347.59;4939368;29;20478;-70
2022/06/20 09:34:28;;;;;;;3.70;0.80;;;;;;;29.29;35.33;101349.88;4938157;29;20028;-69
2022/06/20 09:37:12;;;;;;;8.48;1.23;;;;;;;29.30;35.02;101348.81;4939266;29;20066;-69
2022/06/20 09:39:46;;;;;;;2.85;1.15;;;;;;;29.67;34.57;101362.34;4939209;29;20031;-69
2022/06/20 09:42:22;;;;;;;5.00;1.17;;;;;;;29.85;34.76;101354.78;4937885;29;20450;-69
2022/06/20 09:44:55;;;;;;;2.00;0.70;;;;;;;30.09;34.39;101358.34;4953255;29;20027;-70
2022/06/20 09:47:38;;;;;;;3.20;0.90;;;;;;;30.13;34.20;101354.00;4956922;29;20034;-70
2022/06/20 09:50:22;;;;;;;3.58;0.90;;;;;;;30.24;34.22;101349.50;4972942;28;20386;-69
2022/06/20 09:53:03;;;;;;;3.88;0.70;;;;;;;30.28;33.51;101357.06;4958020;29;20028;-69
2022/06/20 09:55:56;;;;;;;5.60;0.90;;;;;;;30.32;33.20;101360.19;4957948;28;20039;-70
2022/06/20 09:58:27;;;;;;;4.10;0.77;;;;;;;30.42;33.66;101358.50;4957904;29;20378;-70
2022/06/20 10:01:06;;;;;;;4.03;0.82;;;;;;;30.64;32.89;101363.31;4974093;28;20049;-70
2022/06/20 10:04:03;;;;;;;4.70;0.82;;;;;;;31.58;32.44;101368.00;4958434;28;20035;-70
2022/06/20 10:06:56;;;;;;;4.78;1.20;;;;;;;32.36;31.60;101364.09;4950847;28;20026;-70
2022/06/20 10:09:26;;;;;;;1999.90;999.90;;;;;;;32.96;31.55;101358.34;4946020;28;20366;-70
2022/06/20 10:12:16;;;;;;;23.85;22.55;;;;;;;33.83;30.21;101367.91;4971549;28;20023;-70
2022/06/20 10:15:04;;;;;;;5.13;1.00;;;;;;;34.64;29.81;101371.06;4976675;28;20105;-71
2022/06/20 10:17:36;;;;;;;6.70;0.90;;;;;;;34.73;29.38;101374.94;4959559;28;20035;-71
2022/06/20 10:20:35;;;;;;;1.50;0.93;;;;;;;35.19;28.05;101366.66;4976690;28;20420;-70
2022/06/20 10:23:19;;;;;;;5.68;1.30;;;;;;;35.75;27.97;101359.91;4976805;28;20504;-71
2022/06/20 10:25:53;;;;;;;4.85;1.10;;;;;;;35.84;28.29;101369.38;4975535;28;20035;-70
2022/06/20 10:28:43;;;;;;;2.28;0.90;;;;;;;35.75;28.83;101368.25;4969172;28;20587;-71
2022/06/20 10:31:42;;;;;;;4.25;1.33;;;;;;;35.21;29.46;101369.97;4959250;28;20476;-70
2022/06/20 10:34:28;;;;;;;2.72;0.75;;;;;;;34.56;29.22;101370.72;4959358;28;20361;-71
2022/06/20 10:37:05;;;;;;;2.08;0.82;;;;;;;34.00;29.51;101369.66;4976984;28;20023;-70
2022/06/20 10:39:39;;;;;;;3.45;1.20;;;;;;;33.87;29.08;101382.09;4959576;28;20026;-71
2022/06/20 10:42:30;;;;;;;5.85;1.30;;;;;;;34.64;28.90;101376.63;4976399;28;20030;-70
2022/06/20 10:45:41;;;;;;;6.00;2.08;;;;;;;35.15;27.51;101382.28;4959172;28;20027;-70
2022/06/20 10:48:21;;;;;;;1.75;0.82;;;;;;;35.07;28.19;101387.28;4953680;28;20110;-71
2022/06/20 10:51:11;;;;;;;1.48;0.73;;;;;;;34.63;28.39;101386.06;4976335;28;20523;-70
2022/06/20 10:53:47;;;;;;;6.47;1.00;;;;;;;34.42;27.83;101390.69;4976246;28;20031;-69
2022/06/20 10:56:30;;;;;;;2.63;1.00;;;;;;;34.01;28.09;101388.00;4958908;28;20396;-69
2022/06/20 10:59:01;;;;;;;7.05;1.08;;;;;;;33.77;29.07;101394.00;4975493;28;20042;-69
2022/06/20 11:02:05;;;;;;;4.70;1.30;;;;;;;34.44;28.32;101387.66;4975938;28;20027;-70
2022/06/20 11:04:49;;;;;;;3.97;1.02;;;;;;;35.23;27.56;101390.91;4927388;28;20042;-69
2022/06/20 11:07:40;;;;;;;2.88;0.82;;;;;;;35.93;26.59;101389.94;4975667;28;20043;-69
2022/06/20 11:10:17;;;;;;;5.75;1.50;;;;;;;36.52;25.45;101397.56;4954297;28;20459;-69
2022/06/20 11:13:25;;;;;;;4.15;1.08;;;;;;;36.82;25.86;101396.56;4940071;29;20435;-70
2022/06/20 11:16:11;;;;;;;4.07;1.17;;;;;;;36.24;26.09;101389.88;4944185;28;20469;-70
2022/06/20 11:19:01;;;;;;;4.05;0.98;;;;;;;35.58;26.44;101392.84;4975916;28;20035;-69
2022/06/20 11:22:17;;;;;;;1.25;0.60;;;;;;;35.37;26.83;101391.19;4975625;28;20063;-70
2022/06/20 11:25:16;;;;;;;2.00;0.80;;;;;;;34.73;26.75;101397.22;4950680;28;20038;-69
2022/06/20 11:27:41;;;;;;;4.28;0.88;;;;;;;34.30;27.64;101405.97;4957660;28;20093;-68
2022/06/20 11:30:09;;;;;;;1.80;0.95;;;;;;;34.90;26.39;101397.81;4975570;28;20106;-69
2022/06/20 11:32:42;;;;;;;2.22;0.82;;;;;;;35.58;26.01;101392.84;4975682;28;20102;-69
2022/06/20 11:35:11;;;;;;;3.67;0.95;;;;;;;34.95;26.00;101388.63;4958675;28;20022;-69
2022/06/20 11:37:57;;;;;;;2.22;0.70;;;;;;;35.21;26.58;101393.13;4975439;28;20035;-69
2022/06/20 11:40:57;;;;;;;4.38;0.82;;;;;;;35.57;26.02;101385.59;4957975;28;20109;-69
2022/06/20 11:43:43;;;;;;;1.20;0.55;;;;;;;35.85;25.53;101393.31;4967558;28;20061;-68
2022/06/20 11:46:27;;;;;;;1.00;0.70;;;;;;;35.52;26.00;101377.19;4975324;28;20476;-69
2022/06/20 11:48:58;;;;;;;2.58;0.85;;;;;;;35.45;25.53;101382.25;4975434;28;20113;-70
2022/06/20 11:51:35;;;;;;;1.67;0.80;;;;;;;35.23;25.32;101376.97;4975475;28;20033;-69
2022/06/20 11:54:36;;;;;;;3.13;0.70;;;;;;;35.29;25.89;101383.38;4958104;28;20054;-69
2022/06/20 11:57:13;;;;;;;3.28;0.80;;;;;;;35.37;25.20;101380.03;4943836;28;20381;-71
2022/06/20 12:00:03;;;;;;;2.03;0.63;;;;;;;35.33;24.86;101374.16;4957533;28;20043;-71
2022/06/20 12:02:56;;;;;;;3.13;0.68;;;;;;;36.26;24.29;101373.69;4974886;28;20391;-71
2022/06/20 12:05:47;;;;;;;2.88;0.70;;;;;;;36.61;24.27;101379.09;4974998;28;20037;-71
2022/06/20 12:08:30;;;;;;;4.28;0.90;;;;;;;36.87;24.06;101375.00;4974616;28;20054;-71
2022/06/20 12:10:58;;;;;;;1.65;1.25;;;;;;;36.81;24.36;101372.53;4958006;28;20095;-71
2022/06/20 12:13:55;;;;;;;5.03;1.00;;;;;;;37.11;23.99;101373.16;4957643;28;20041;-72